首页
METAR-TAF:

METAR-TAF

机场 :

赫维什-巴拉顿国际机场

黑維茲, 匈牙利

纬度: 46-41-11N, 经度: 017-09-33E, 海拔: 124米

当前天气观测

该预报发布于58分钟前的03:15 UTC
风速4节,风向南转南东
温度 14°C
湿度 88%
气压 997 hPa
能見度: 9000

METAR: LHSM 050315Z AUTO 16004KT 9000 NSC 14/12 Q0997

时间: 06:13 (04:13 UTC)


TAF: 丢失

超过4000个机场的气象观测和天气预报(METAR&TAF报告)。

可查询的气象台以黄色和红色小点在地图上表示。

将鼠标移到小点上方,可查看气象台名称。

然后点击查看天气观测和预报。

如需切换地图:点击带黑十字的绿色按钮放大地图;点击带横线的绿色按钮缩小地图;或者点击绿色箭头查看邻近地区的地图。


METAR-TAF: